Time;durP1;ratioP1;P1;durP2;ratioP2;P2;SDS_P1;SDS_P2;PMS_P1;PMS_P2;Temp;Humidity;BMP_temperature;BMP_pressure;BME280_temperature;BME280_humidity;BME280_pressure;Samples;Min_cycle;Max_cycle;Signal;HPM_P1;HPM_P2
2023/10/03 00:00:33;;;;;;;33.60;17.65;;;;;;;17.42;68.99;98290.81;5053694;28;20369;-72
2023/10/03 00:03:00;;;;;;;34.55;18.63;;;;;;;17.43;69.28;98287.00;5054294;28;20072;-72
2023/10/03 00:05:31;;;;;;;33.65;17.25;;;;;;;17.56;69.09;98298.06;5051787;28;20029;-76
2023/10/03 00:07:58;;;;;;;33.85;17.17;;;;;;;17.61;69.09;98300.75;5068784;28;20400;-73
2023/10/03 00:10:24;;;;;;;34.45;18.13;;;;;;;17.63;69.17;98298.53;5042022;28;20032;-72
2023/10/03 00:12:51;;;;;;;33.28;17.70;;;;;;;17.59;69.55;98292.03;5057893;28;20037;-74
2023/10/03 00:15:23;;;;;;;36.15;19.02;;;;;;;17.59;69.17;98281.16;5058978;28;20032;-74
2023/10/03 00:17:49;;;;;;;34.97;18.77;;;;;;;17.74;68.95;98301.97;5042495;28;20047;-75
2023/10/03 00:20:16;;;;;;;33.92;17.85;;;;;;;17.77;69.03;98304.94;5077201;28;20054;-74
2023/10/03 00:22:48;;;;;;;35.70;18.30;;;;;;;17.81;68.90;98305.97;5042395;28;20039;-73
2023/10/03 00:25:18;;;;;;;35.13;17.83;;;;;;;17.78;69.00;98298.38;5057717;28;20040;-72
2023/10/03 00:27:52;;;;;;;35.28;18.08;;;;;;;17.67;68.86;98282.41;5055064;28;20020;-70
2023/10/03 00:30:23;;;;;;;38.75;19.70;;;;;;;17.75;69.04;98306.31;5053957;28;20033;-71
2023/10/03 00:32:49;;;;;;;33.08;18.50;;;;;;;17.65;69.13;98293.59;5032525;28;20115;-71
2023/10/03 00:35:16;;;;;;;35.70;17.90;;;;;;;17.60;68.95;98288.22;5053463;28;20052;-72
2023/10/03 00:37:44;;;;;;;37.10;18.65;;;;;;;17.53;69.03;98282.28;5052797;28;20094;-72
2023/10/03 00:42:57;;;;;;;34.35;17.98;;;;;;;17.52;69.16;98288.03;5058459;28;20654;-70
2023/10/03 00:45:26;;;;;;;32.25;16.80;;;;;;;17.42;69.16;98291.63;5056925;28;20506;-71
2023/10/03 00:47:58;;;;;;;35.67;17.67;;;;;;;17.38;69.25;98285.13;5006773;28;20032;-70
2023/10/03 00:50:25;;;;;;;34.17;17.90;;;;;;;17.17;69.60;98259.19;5033879;28;20029;-70
2023/10/03 00:52:55;;;;;;;33.78;17.48;;;;;;;17.04;69.67;98262.53;5074452;28;20056;-71
2023/10/03 00:55:32;;;;;;;33.70;17.13;;;;;;;17.12;69.70;98275.53;5040199;28;20029;-70
2023/10/03 00:58:17;;;;;;;33.90;17.63;;;;;;;17.09;69.85;98270.66;5056284;28;20044;-70
2023/10/03 01:00:49;;;;;;;31.05;17.25;;;;;;;17.01;70.10;98274.00;5056147;28;20400;-70
2023/10/03 01:03:31;;;;;;;31.17;17.23;;;;;;;16.94;70.08;98273.53;5056502;28;20451;-70
2023/10/03 01:06:16;;;;;;;32.45;17.45;;;;;;;16.75;70.29;98275.28;5047162;28;20033;-72
2023/10/03 01:08:47;;;;;;;31.50;16.40;;;;;;;16.59;70.83;98280.78;5072078;28;20084;-72
2023/10/03 01:11:24;;;;;;;27.67;15.88;;;;;;;16.41;71.59;98275.97;5056129;28;20032;-72
2023/10/03 01:14:00;;;;;;;31.50;17.23;;;;;;;16.36;71.74;98278.72;5040272;28;20036;-73
2023/10/03 01:16:33;;;;;;;31.63;17.75;;;;;;;16.28;71.91;98260.28;5035341;28;20086;-74
2023/10/03 01:19:42;;;;;;;31.52;17.77;;;;;;;16.33;72.04;98268.41;5040330;28;20039;-72
2023/10/03 01:21:51;;;;;;;30.77;17.55;;;;;;;16.38;72.28;98273.03;5055272;28;20044;-72
2023/10/03 01:24:20;;;;;;;32.15;17.75;;;;;;;16.28;72.40;98249.41;5036745;28;20053;-72
2023/10/03 01:26:47;;;;;;;30.92;17.77;;;;;;;16.27;72.59;98263.25;5042714;28;20074;-71
2023/10/03 01:29:12;;;;;;;29.77;16.98;;;;;;;16.33;72.61;98276.56;5036124;28;20061;-72
2023/10/03 01:31:39;;;;;;;33.33;18.00;;;;;;;16.26;73.07;98262.47;5039155;28;20029;-72
2023/10/03 01:34:05;;;;;;;33.70;17.75;;;;;;;16.17;72.44;98247.03;5063874;28;20021;-72
2023/10/03 01:36:31;;;;;;;32.65;18.98;;;;;;;16.20;72.80;98251.88;5073271;28;20032;-73
2023/10/03 01:38:56;;;;;;;34.30;17.92;;;;;;;16.27;73.26;98252.41;5055624;28;20534;-72
2023/10/03 01:41:22;;;;;;;33.00;18.48;;;;;;;16.16;73.43;98238.06;5055505;28;20035;-72
2023/10/03 01:43:48;;;;;;;35.78;19.35;;;;;;;16.29;73.51;98244.81;5038979;28;20392;-72
2023/10/03 01:46:13;;;;;;;33.00;18.48;;;;;;;16.31;73.82;98248.84;5055033;28;20395;-72
2023/10/03 01:48:39;;;;;;;33.15;19.55;;;;;;;16.28;74.18;98224.97;5055377;28;20025;-71
2023/10/03 01:51:05;;;;;;;38.20;20.25;;;;;;;16.42;74.42;98228.69;5035737;28;20033;-72
2023/10/03 01:53:30;;;;;;;34.35;19.67;;;;;;;16.43;74.19;98219.41;5062447;28;20048;-71
2023/10/03 01:55:56;;;;;;;37.05;19.52;;;;;;;16.53;74.54;98224.84;5055087;28;20074;-70
2023/10/03 01:58:24;;;;;;;38.13;19.55;;;;;;;16.54;74.82;98221.03;5035373;28;20107;-71
2023/10/03 02:00:50;;;;;;;37.38;20.15;;;;;;;16.58;74.77;98221.25;5035120;28;20469;-71
2023/10/03 02:03:16;;;;;;;36.28;20.33;;;;;;;16.64;75.07;98213.91;5045589;28;20488;-70
2023/10/03 02:05:42;;;;;;;38.85;21.10;;;;;;;16.69;75.03;98202.97;5047913;28;20033;-70
2023/10/03 02:08:17;;;;;;;39.10;21.50;;;;;;;16.62;75.39;98188.91;5048826;28;20119;-72
2023/10/03 02:10:47;;;;;;;38.95;20.35;;;;;;;16.76;75.51;98184.41;5034998;28;20033;-71
2023/10/03 02:13:17;;;;;;;41.22;20.25;;;;;;;16.63;75.45;98157.88;5036753;28;20051;-71
2023/10/03 02:15:46;;;;;;;40.35;20.63;;;;;;;16.84;75.57;98170.22;5054328;28;20435;-71
2023/10/03 02:18:13;;;;;;;43.50;21.40;;;;;;;16.93;75.07;98187.53;5054916;28;20039;-75
2023/10/03 02:20:47;;;;;;;41.90;21.75;;;;;;;16.77;75.15;98145.25;5051515;28;20037;-74
2023/10/03 02:23:17;;;;;;;43.65;22.48;;;;;;;17.04;75.21;98167.28;5051705;28;20032;-72
2023/10/03 02:25:43;;;;;;;42.00;21.88;;;;;;;16.97;75.38;98142.34;5034047;28;20468;-74
2023/10/03 02:28:09;;;;;;;45.10;23.10;;;;;;;17.15;74.93;98157.97;5051308;28;20104;-72
2023/10/03 02:30:35;;;;;;;45.30;22.65;;;;;;;17.10;75.22;98141.69;5064646;28;20111;-73
2023/10/03 02:33:12;;;;;;;44.83;22.45;;;;;;;17.22;75.00;98158.44;5054860;28;20020;-72
2023/10/03 02:35:42;;;;;;;44.35;22.70;;;;;;;17.26;74.69;98156.75;5054221;28;20124;-71
2023/10/03 02:38:23;;;;;;;38.95;21.35;;;;;;;17.32;74.90;98155.59;5055108;28;20031;-73
2023/10/03 02:40:51;;;;;;;51.42;24.77;;;;;;;17.34;74.67;98152.59;5054180;28;20032;-72
2023/10/03 02:43:16;;;;;;;42.80;22.75;;;;;;;17.36;74.40;98153.94;5034752;28;20035;-73
2023/10/03 02:45:42;;;;;;;40.88;21.63;;;;;;;17.30;74.26;98155.06;5033907;28;20048;-72
2023/10/03 02:48:15;;;;;;;45.58;22.95;;;;;;;17.26;74.42;98159.47;5037936;28;20028;-72
2023/10/03 02:50:47;;;;;;;42.83;22.20;;;;;;;17.19;74.54;98161.72;5071418;28;20035;-72
2023/10/03 02:53:15;;;;;;;41.70;22.80;;;;;;;17.09;74.42;98146.31;5038361;28;20039;-71
2023/10/03 02:55:41;;;;;;;43.75;22.45;;;;;;;17.15;74.55;98155.25;5034096;28;20481;-71
2023/10/03 02:58:08;;;;;;;46.85;23.52;;;;;;;17.14;74.62;98164.50;5045803;28;20055;-72
2023/10/03 03:00:35;;;;;;;48.83;23.88;;;;;;;17.02;75.12;98145.81;5050600;28;20096;-71
2023/10/03 03:03:01;;;;;;;42.45;23.00;;;;;;;17.17;74.97;98147.59;5034373;28;20124;-72
2023/10/03 03:05:35;;;;;;;43.33;21.92;;;;;;;17.12;75.12;98134.03;5034029;28;20437;-74
2023/10/03 03:08:11;;;;;;;44.40;23.25;;;;;;;17.27;74.95;98136.56;5043686;28;20037;-75
2023/10/03 03:10:38;;;;;;;47.97;24.60;;;;;;;17.34;75.01;98147.16;5026329;28;20038;-74
2023/10/03 03:13:07;;;;;;;47.05;23.77;;;;;;;17.33;74.69;98140.88;5037637;28;20031;-74
2023/10/03 03:15:36;;;;;;;47.60;23.17;;;;;;;17.46;74.44;98148.34;5053919;28;20055;-74
2023/10/03 03:18:02;;;;;;;46.58;23.80;;;;;;;17.33;74.28;98121.84;5054173;28;20020;-75
2023/10/03 03:20:36;;;;;;;48.95;23.95;;;;;;;17.37;74.40;98133.75;5053936;28;20090;-75
2023/10/03 03:23:02;;;;;;;44.65;24.15;;;;;;;17.36;74.58;98134.88;5039616;28;20036;-73
2023/10/03 03:25:36;;;;;;;43.45;22.50;;;;;;;17.41;74.46;98142.16;5071570;28;20032;-73
2023/10/03 03:28:12;;;;;;;44.28;23.55;;;;;;;17.26;74.21;98118.63;5055429;28;20036;-73
2023/10/03 03:30:38;;;;;;;;;;;;;;;17.05;74.57;98147.97;5034538;28;20035;-73
2023/10/03 03:33:06;;;;;;;49.13;24.92;;;;;;;17.14;74.54;98138.09;5066185;28;19914;-74
2023/10/03 03:35:37;;;;;;;48.05;23.52;;;;;;;17.13;73.88;98132.91;5053077;28;20553;-74
2023/10/03 03:38:05;;;;;;;48.30;23.98;;;;;;;17.11;74.19;98137.84;5037316;28;20045;-73
2023/10/03 03:40:31;;;;;;;49.08;24.25;;;;;;;17.17;74.68;98148.41;5054307;28;20025;-72
2023/10/03 03:42:58;;;;;;;51.28;24.42;;;;;;;17.18;74.52;98151.91;5037555;28;20039;-71
2023/10/03 03:45:25;;;;;;;45.55;24.48;;;;;;;17.14;74.50;98142.72;5036991;28;20119;-71
2023/10/03 03:47:52;;;;;;;46.83;25.02;;;;;;;17.05;74.41;98133.56;5053325;28;20032;-72
2023/10/03 03:50:17;;;;;;;46.20;23.48;;;;;;;17.03;74.67;98135.75;5053628;28;20047;-71
2023/10/03 03:52:45;;;;;;;48.72;23.92;;;;;;;17.01;74.60;98127.88;5053594;28;20063;-70
2023/10/03 03:55:11;;;;;;;45.17;24.25;;;;;;;16.98;74.68;98123.03;5071333;28;20107;-70
2023/10/03 03:57:37;;;;;;;49.67;24.98;;;;;;;17.13;74.63;98143.81;5053068;28;20119;-69
2023/10/03 04:00:17;;;;;;;46.35;22.80;;;;;;;16.95;74.66;98117.31;5070371;28;20031;-69
2023/10/03 04:02:43;;;;;;;49.13;24.88;;;;;;;17.07;74.68;98126.72;5055543;28;20460;-71
2023/10/03 04:05:12;;;;;;;46.45;23.98;;;;;;;16.88;74.29;98098.63;5073448;28;20037;-72
2023/10/03 04:07:38;;;;;;;51.13;25.45;;;;;;;17.10;75.03;98136.22;5072848;28;20056;-73
2023/10/03 04:10:10;;;;;;;51.88;24.33;;;;;;;17.11;74.77;98133.22;5037996;28;20088;-72
2023/10/03 04:12:41;;;;;;;50.40;25.40;;;;;;;17.06;75.14;98127.03;5044810;28;20029;-73
2023/10/03 04:15:10;;;;;;;50.05;24.55;;;;;;;17.07;75.04;98115.03;5052361;28;20063;-71
2023/10/03 04:17:36;;;;;;;48.83;24.05;;;;;;;17.04;74.87;98110.97;5050341;28;20021;-70
2023/10/03 04:20:03;;;;;;;48.78;24.35;;;;;;;17.07;74.87;98115.03;5054404;28;20086;-72
2023/10/03 04:22:29;;;;;;;45.38;23.63;;;;;;;17.07;75.43;98115.03;5053432;28;20066;-70
2023/10/03 04:24:55;;;;;;;45.22;23.52;;;;;;;16.99;75.07;98112.94;5053511;28;20032;-72
2023/10/03 04:27:20;;;;;;;49.65;25.13;;;;;;;16.91;75.46;98089.09;5070863;28;20024;-72
2023/10/03 04:29:47;;;;;;;47.47;24.38;;;;;;;16.84;75.07;98096.75;5053226;28;20063;-71
2023/10/03 04:32:12;;;;;;;45.58;23.65;;;;;;;16.84;74.71;98085.88;5070864;28;20028;-72
2023/10/03 04:34:38;;;;;;;48.35;24.65;;;;;;;16.97;74.78;98112.41;5049899;28;20036;-71
2023/10/03 04:37:03;;;;;;;48.53;24.95;;;;;;;16.91;75.20;98102.69;5050847;28;20021;-73
2023/10/03 04:39:28;;;;;;;48.40;24.63;;;;;;;16.88;75.06;98100.53;5069281;28;20047;-72
2023/10/03 04:41:54;;;;;;;48.55;24.65;;;;;;;16.88;75.07;98111.41;5049886;28;20032;-71
2023/10/03 04:44:19;;;;;;;51.33;26.15;;;;;;;16.84;75.19;98105.75;5068739;28;20033;-74
2023/10/03 04:46:45;;;;;;;49.03;25.33;;;;;;;16.81;75.14;98100.06;5053315;28;20100;-73
2023/10/03 04:49:11;;;;;;;52.55;25.23;;;;;;;16.81;75.51;98105.50;5053713;28;20409;-72
2023/10/03 04:51:37;;;;;;;44.70;24.17;;;;;;;16.82;75.20;98107.13;5065202;28;20021;-73
2023/10/03 04:54:03;;;;;;;44.55;23.75;;;;;;;16.76;75.53;98092.75;5053754;28;20048;-73
2023/10/03 04:56:28;;;;;;;52.47;25.63;;;;;;;16.90;75.27;98098.31;5061470;28;20044;-72
2023/10/03 04:58:55;;;;;;;46.95;25.55;;;;;;;16.83;75.54;98092.41;5061686;28;20055;-72
2023/10/03 05:01:20;;;;;;;48.65;25.10;;;;;;;16.92;75.51;98101.59;5074666;28;20099;-73
2023/10/03 05:03:46;;;;;;;49.78;24.60;;;;;;;16.91;75.62;98110.84;5072924;28;20060;-73
2023/10/03 05:06:11;;;;;;;46.25;23.90;;;;;;;16.81;75.86;98083.72;5052275;28;20097;-74
2023/10/03 05:08:37;;;;;;;46.92;23.88;;;;;;;16.92;75.45;98090.72;5068350;28;20411;-71
2023/10/03 05:11:05;;;;;;;45.60;25.25;;;;;;;17.03;75.60;98120.25;5051803;28;20027;-73
2023/10/03 05:13:31;;;;;;;44.83;23.52;;;;;;;17.07;75.51;98110.41;5041999;28;20032;-74
2023/10/03 05:15:57;;;;;;;46.90;23.50;;;;;;;17.07;75.23;98110.41;5044458;28;20831;-74
2023/10/03 05:18:23;;;;;;;49.30;24.83;;;;;;;16.92;75.47;98080.63;5072052;28;20638;-72
2023/10/03 05:20:49;;;;;;;52.53;24.77;;;;;;;17.08;75.68;98106.56;5065389;28;20025;-72
2023/10/03 05:23:15;;;;;;;48.42;24.15;;;;;;;17.09;75.49;98104.66;5055619;28;20028;-74
2023/10/03 05:25:42;;;;;;;49.15;24.45;;;;;;;17.12;75.52;98091.31;5072951;28;20078;-73
2023/10/03 05:28:10;;;;;;;46.25;23.77;;;;;;;17.04;75.68;98077.50;5073788;28;20024;-73
2023/10/03 05:30:38;;;;;;;48.38;24.55;;;;;;;17.18;75.33;98095.59;5053814;28;20025;-70
2023/10/03 05:33:06;;;;;;;46.53;24.35;;;;;;;17.16;75.05;98075.19;5052686;28;20048;-74
2023/10/03 05:35:32;;;;;;;49.25;25.55;;;;;;;17.21;74.99;98077.88;5048681;28;20020;-75
2023/10/03 05:37:57;;;;;;;46.97;24.77;;;;;;;17.12;74.98;98057.84;5055252;28;20041;-76
2023/10/03 05:40:22;;;;;;;49.88;25.23;;;;;;;17.32;74.74;98084.03;5055526;28;20106;-75
2023/10/03 05:42:49;;;;;;;45.88;24.30;;;;;;;17.21;74.76;98072.41;5050345;28;20044;-75
2023/10/03 05:45:15;;;;;;;47.47;24.25;;;;;;;17.36;74.66;98085.88;5052384;28;20083;-75
2023/10/03 05:47:48;;;;;;;45.08;23.67;;;;;;;17.42;74.33;98081.97;5051355;28;20131;-76
2023/10/03 05:50:15;;;;;;;44.83;23.40;;;;;;;17.42;74.38;98084.69;5016094;28;20025;-74
2023/10/03 05:52:43;;;;;;;47.30;24.08;;;;;;;17.39;74.18;98079.81;5031733;28;20167;-72
2023/10/03 05:55:09;;;;;;;45.22;23.38;;;;;;;17.28;74.22;98059.28;5047534;28;20045;-75
2023/10/03 05:57:37;;;;;;;47.88;24.73;;;;;;;17.48;73.92;98093.63;5055054;28;20020;-75
2023/10/03 06:00:03;;;;;;;46.03;24.08;;;;;;;17.51;73.63;98093.88;5052184;28;20381;-75
2023/10/03 06:02:32;;;;;;;46.40;24.45;;;;;;;17.52;73.29;98098.22;5052015;28;20546;-73
2023/10/03 06:04:58;;;;;;;49.20;24.85;;;;;;;17.52;73.65;98090.06;5067814;28;20029;-75
2023/10/03 06:07:23;;;;;;;47.60;23.98;;;;;;;17.44;73.99;98087.94;5038301;28;20025;-75
2023/10/03 06:09:48;;;;;;;48.40;23.92;;;;;;;17.44;73.97;98090.66;5055109;28;20036;-75
2023/10/03 06:12:14;;;;;;;46.13;25.13;;;;;;;17.48;73.93;98088.97;5051180;28;20024;-75
2023/10/03 06:14:40;;;;;;;49.80;25.95;;;;;;;17.50;73.53;98085.97;5066763;28;20090;-75
2023/10/03 06:17:07;;;;;;;44.90;24.05;;;;;;;17.50;74.01;98081.34;5038006;28;20032;-75
2023/10/03 06:19:32;;;;;;;47.72;25.33;;;;;;;17.61;73.50;98093.75;5078545;28;20063;-75
2023/10/03 06:21:58;;;;;;;46.92;25.75;;;;;;;17.61;73.98;98093.75;5054871;28;20082;-76
2023/10/03 06:24:25;;;;;;;49.22;25.52;;;;;;;17.41;73.95;98066.72;5073387;28;20032;-75
2023/10/03 06:26:51;;;;;;;48.67;24.10;;;;;;;17.61;74.25;98099.19;5054618;28;20020;-75
2023/10/03 06:29:16;;;;;;;51.83;25.77;;;;;;;17.52;74.27;98079.16;5072501;28;20488;-74
2023/10/03 06:31:42;;;;;;;49.45;25.25;;;;;;;17.59;74.21;98101.41;5054588;28;20020;-75
2023/10/03 06:34:08;;;;;;;46.22;24.52;;;;;;;17.59;74.49;98101.41;5072509;28;20043;-74
2023/10/03 06:36:34;;;;;;;45.33;23.77;;;;;;;17.65;74.33;98105.66;5054132;28;20024;-74
2023/10/03 06:38:59;;;;;;;47.25;25.38;;;;;;;17.73;73.90;98107.75;5054538;28;20078;-75
2023/10/03 06:41:26;;;;;;;50.03;25.60;;;;;;;17.74;73.68;98094.91;5072227;28;20520;-74
2023/10/03 06:43:51;;;;;;;49.80;24.90;;;;;;;17.84;73.35;98098.34;5072323;28;20044;-74
2023/10/03 06:46:17;;;;;;;50.95;25.02;;;;;;;17.87;73.24;98084.13;5071836;28;20112;-74
2023/10/03 06:48:45;;;;;;;45.40;24.13;;;;;;;17.99;73.45;98093.78;5054383;28;20115;-75
2023/10/03 06:51:10;;;;;;;46.03;23.33;;;;;;;18.11;73.09;98094.16;5070630;28;20032;-75
2023/10/03 06:53:36;;;;;;;46.85;23.55;;;;;;;18.24;72.49;98112.47;5054175;28;20036;-75
2023/10/03 06:56:01;;;;;;;45.53;23.67;;;;;;;18.27;72.46;98112.72;5071530;28;20059;-74
2023/10/03 06:58:27;;;;;;;48.47;23.45;;;;;;;18.31;72.38;98107.47;5071896;28;20396;-74
2023/10/03 07:00:54;;;;;;;42.08;22.58;;;;;;;18.22;71.85;98103.78;5071742;28;20028;-75
2023/10/03 07:03:23;;;;;;;47.08;23.02;;;;;;;18.13;71.98;98090.03;5071756;28;20448;-74
2023/10/03 07:05:48;;;;;;;43.28;22.60;;;;;;;18.04;71.79;98090.97;5032639;28;20059;-75
2023/10/03 07:08:14;;;;;;;47.22;22.38;;;;;;;18.18;71.86;98108.22;5048609;28;20036;-75
2023/10/03 07:10:42;;;;;;;41.58;22.50;;;;;;;18.11;71.68;98099.59;5071663;28;20024;-75
2023/10/03 07:13:12;;;;;;;44.65;22.02;;;;;;;18.09;71.43;98099.06;5051353;28;20032;-74
2023/10/03 07:15:39;;;;;;;41.30;23.20;;;;;;;18.18;71.42;98100.03;5053711;28;20028;-74
2023/10/03 07:18:05;;;;;;;43.50;22.02;;;;;;;18.24;71.54;98101.56;5069005;28;20048;-74
2023/10/03 07:20:30;;;;;;;42.72;21.95;;;;;;;18.37;71.20;98106.28;5050264;28;20031;-74
2023/10/03 07:22:55;;;;;;;41.65;21.02;;;;;;;18.36;70.97;98071.94;5066790;28;20043;-74
2023/10/03 07:25:21;;;;;;;44.22;21.58;;;;;;;18.55;70.44;98097.31;5071382;28;20028;-75
2023/10/03 07:27:48;;;;;;;36.42;20.70;;;;;;;18.70;69.55;98099.75;5036741;28;20093;-74
2023/10/03 07:30:14;;;;;;;39.05;20.02;;;;;;;18.75;69.12;98077.84;5034148;28;20496;-75
2023/10/03 07:32:40;;;;;;;40.88;20.63;;;;;;;18.96;69.06;98091.94;5054385;28;20032;-75
2023/10/03 07:35:10;;;;;;;37.92;19.52;;;;;;;19.04;68.27;98104.91;5033972;28;20025;-75
2023/10/03 07:37:36;;;;;;;36.92;20.55;;;;;;;19.18;68.03;98101.06;5048962;28;20049;-74
2023/10/03 07:40:03;;;;;;;37.13;19.02;;;;;;;19.33;67.81;98098.03;5020656;28;20149;-76
2023/10/03 07:42:30;;;;;;;35.67;19.42;;;;;;;19.45;66.86;98104.94;5057655;28;20047;-74
2023/10/03 07:44:56;;;;;;;39.42;20.05;;;;;;;19.49;66.14;98095.03;5053387;28;20103;-73
2023/10/03 07:47:21;;;;;;;38.67;19.30;;;;;;;19.66;66.08;98104.22;5071018;28;20067;-73
2023/10/03 07:49:48;;;;;;;36.40;18.52;;;;;;;19.71;64.97;98097.84;5053356;28;20025;-73
2023/10/03 07:52:17;;;;;;;36.75;18.30;;;;;;;19.85;64.68;98115.03;5071475;28;20036;-74
2023/10/03 07:54:46;;;;;;;38.42;18.50;;;;;;;19.92;64.79;98104.50;5065855;28;20029;-74
2023/10/03 07:57:13;;;;;;;33.15;17.50;;;;;;;20.08;64.00;98111.25;5070809;28;20036;-74
2023/10/03 07:59:38;;;;;;;37.10;17.95;;;;;;;20.16;63.37;98121.47;5071050;28;20021;-74
2023/10/03 08:02:10;;;;;;;32.30;17.45;;;;;;;20.24;62.71;98128.94;5053118;28;20086;-73
2023/10/03 08:04:37;;;;;;;35.20;18.40;;;;;;;20.31;62.47;98115.66;5033411;28;20128;-74
2023/10/03 08:07:04;;;;;;;32.47;17.10;;;;;;;20.43;62.26;98121.41;5049337;28;20024;-74
2023/10/03 08:09:31;;;;;;;35.08;18.17;;;;;;;20.56;61.63;98136.94;5044372;28;20041;-74
2023/10/03 08:11:57;;;;;;;31.20;16.83;;;;;;;20.62;61.33;98132.97;5053116;28;20047;-74
2023/10/03 08:14:23;;;;;;;30.27;16.83;;;;;;;20.70;61.51;98127.88;5053180;28;20493;-75
2023/10/03 08:16:48;;;;;;;34.28;16.50;;;;;;;20.77;61.09;98126.31;5052654;28;20638;-74
2023/10/03 08:19:21;;;;;;;33.17;17.23;;;;;;;20.82;61.35;98122.66;5053216;28;20032;-74
2023/10/03 08:21:53;;;;;;;33.35;16.63;;;;;;;20.94;60.82;98125.59;5049510;28;20122;-74
2023/10/03 08:24:24;;;;;;;32.08;16.40;;;;;;;21.04;60.82;98125.34;5036812;28;20064;-75
2023/10/03 08:26:51;;;;;;;31.15;16.25;;;;;;;21.03;60.42;98101.81;5028071;28;20040;-74
2023/10/03 08:29:21;;;;;;;31.38;16.15;;;;;;;21.11;60.24;98120.25;5054157;28;20029;-74
2023/10/03 08:31:59;;;;;;;32.17;16.27;;;;;;;21.26;60.48;98123.41;5053865;28;20397;-74
2023/10/03 08:34:25;;;;;;;33.40;17.75;;;;;;;21.34;60.49;98108.94;5037388;28;20040;-74
2023/10/03 08:36:54;;;;;;;32.47;16.67;;;;;;;21.33;59.96;98084.63;5056530;28;20043;-73
2023/10/03 08:39:22;;;;;;;30.70;15.52;;;;;;;21.48;60.05;98111.56;5039710;28;20040;-74
2023/10/03 08:42:15;;;;;;;29.48;17.00;;;;;;;21.54;59.31;98110.28;5053404;28;20116;-74
2023/10/03 08:44:54;;;;;;;30.98;16.75;;;;;;;21.38;59.09;98081.69;5046388;28;20052;-73
2023/10/03 08:47:33;;;;;;;33.60;16.38;;;;;;;21.58;59.19;98100.31;5055084;28;20093;-74
2023/10/03 08:50:11;;;;;;;29.38;15.85;;;;;;;21.65;59.10;98102.59;5053233;28;20496;-74
2023/10/03 08:52:44;;;;;;;29.63;15.73;;;;;;;21.75;58.84;98119.53;5048224;28;20051;-74
2023/10/03 08:55:14;;;;;;;29.80;15.60;;;;;;;21.91;58.56;98122.69;5053206;28;20410;-74
2023/10/03 08:57:40;;;;;;;29.63;15.55;;;;;;;22.06;58.39;98121.41;5043949;28;20036;-74
2023/10/03 09:00:09;;;;;;;28.20;14.88;;;;;;;22.14;58.69;98123.38;5056361;28;20036;-74
2023/10/03 09:02:45;;;;;;;27.33;15.05;;;;;;;22.24;58.09;98120.34;5039923;28;20040;-74
2023/10/03 09:05:19;;;;;;;27.00;15.18;;;;;;;22.39;57.58;98123.41;5050812;28;20086;-74
2023/10/03 09:07:47;;;;;;;25.88;14.25;;;;;;;22.49;57.35;98125.00;5039694;28;20404;-73
2023/10/03 09:10:22;;;;;;;25.38;13.75;;;;;;;22.61;56.52;98122.47;5052864;28;20417;-74
2023/10/03 09:12:52;;;;;;;27.48;13.88;;;;;;;22.60;55.95;98118.06;5047874;28;20036;-74
2023/10/03 09:15:19;;;;;;;26.73;14.57;;;;;;;22.80;56.25;98128.41;5055834;28;20033;-74
2023/10/03 09:17:49;;;;;;;25.52;13.93;;;;;;;22.85;55.43;98130.97;5073820;28;20452;-75
2023/10/03 09:20:22;;;;;;;27.90;13.90;;;;;;;22.84;55.43;98101.09;5039761;28;20040;-74
2023/10/03 09:22:48;;;;;;;24.65;13.77;;;;;;;22.94;55.39;98117.25;5036824;28;20044;-75
2023/10/03 09:25:16;;;;;;;25.17;13.73;;;;;;;23.07;55.24;98122.53;5055935;28;20036;-75
2023/10/03 09:27:42;;;;;;;24.80;13.25;;;;;;;23.18;55.11;98126.53;5052882;28;20123;-74
2023/10/03 09:30:09;;;;;;;25.83;13.82;;;;;;;23.28;54.56;98106.97;5052385;28;20104;-74
2023/10/03 09:32:39;;;;;;;26.20;12.80;;;;;;;23.28;54.64;98100.66;5034006;28;20033;-74
2023/10/03 09:35:09;;;;;;;24.25;13.30;;;;;;;23.38;54.55;98094.03;5038122;28;20385;-75
2023/10/03 09:37:35;;;;;;;23.13;13.95;;;;;;;23.52;54.34;98116.59;5038329;28;20033;-74
2023/10/03 09:40:01;;;;;;;23.25;11.93;;;;;;;23.36;53.31;98103.38;5055587;28;20032;-74
2023/10/03 09:42:30;;;;;;;22.40;12.35;;;;;;;23.44;53.64;98114.69;5073539;28;20036;-74
2023/10/03 09:44:58;;;;;;;23.05;12.43;;;;;;;23.48;53.26;98099.16;5035702;28;20501;-74
2023/10/03 09:47:30;;;;;;;23.05;12.82;;;;;;;23.59;53.77;98100.41;5052160;28;20040;-74
2023/10/03 09:50:03;;;;;;;25.40;12.73;;;;;;;23.79;53.71;98102.38;5056300;28;20028;-74
2023/10/03 09:52:30;;;;;;;22.45;13.18;;;;;;;23.88;53.22;98103.94;5052034;28;20047;-75
2023/10/03 09:55:17;;;;;;;23.45;12.88;;;;;;;23.81;53.36;98091.84;5047212;28;20503;-74
2023/10/03 09:57:44;;;;;;;24.80;13.05;;;;;;;23.92;53.16;98093.09;5041334;28;20464;-74
2023/10/03 10:00:23;;;;;;;24.67;13.38;;;;;;;23.96;52.97;98094.84;5072950;28;20115;-74
2023/10/03 10:02:54;;;;;;;26.58;13.57;;;;;;;23.95;53.23;98103.41;5055189;28;20159;-75
2023/10/03 10:05:22;;;;;;;28.65;14.77;;;;;;;24.20;53.67;98083.19;5052012;28;20033;-72
2023/10/03 10:08:13;;;;;;;25.17;13.90;;;;;;;24.44;53.60;98077.81;5045701;28;20020;-72
2023/10/03 10:10:41;;;;;;;23.27;12.55;;;;;;;24.60;52.61;98081.56;5042671;28;20036;-71
2023/10/03 10:13:20;;;;;;;24.50;12.85;;;;;;;24.70;52.11;98075.63;5052065;28;20108;-73
2023/10/03 10:16:01;;;;;;;23.52;12.85;;;;;;;24.83;51.34;98075.72;5049918;28;20093;-73
2023/10/03 10:18:51;;;;;;;21.33;11.65;;;;;;;25.09;51.92;98073.44;5052952;28;20037;-73
2023/10/03 10:21:19;;;;;;;21.52;11.15;;;;;;;25.22;51.66;98069.59;5058373;28;20049;-73
2023/10/03 10:24:11;;;;;;;23.35;11.73;;;;;;;25.21;50.73;98067.97;5033291;28;20501;-73
2023/10/03 10:26:38;;;;;;;23.40;12.65;;;;;;;25.13;50.77;98055.09;5064573;28;20098;-73
2023/10/03 10:29:14;;;;;;;20.02;11.50;;;;;;;25.43;50.42;98062.03;5045753;28;20052;-75
2023/10/03 10:31:44;;;;;;;22.73;11.30;;;;;;;25.66;51.05;98056.88;5064475;28;20098;-73
2023/10/03 10:34:21;;;;;;;19.42;10.60;;;;;;;25.64;50.30;98071.03;5054951;28;20040;-74
2023/10/03 10:37:01;;;;;;;18.00;10.73;;;;;;;25.79;49.83;98069.53;5046445;28;20504;-73
2023/10/03 10:39:56;;;;;;;17.70;10.18;;;;;;;25.81;49.78;98059.72;5049129;28;20033;-73
2023/10/03 10:42:26;;;;;;;20.02;10.75;;;;;;;25.99;50.03;98066.63;5058765;28;20515;-73
2023/10/03 10:45:04;;;;;;;15.88;9.63;;;;;;;25.94;49.55;98061.31;5037479;28;20039;-73
2023/10/03 10:47:33;;;;;;;13.52;8.07;;;;;;;25.93;48.54;98048.66;5054096;28;20040;-72
2023/10/03 10:50:00;;;;;;;14.23;7.20;;;;;;;25.93;47.39;98050.63;5053310;28;20037;-72
2023/10/03 10:52:26;;;;;;;11.98;7.05;;;;;;;25.88;47.24;98054.41;5054200;28;20036;-70
2023/10/03 10:54:51;;;;;;;11.82;7.03;;;;;;;25.80;47.48;98043.53;5072310;28;20031;-70
2023/10/03 10:57:18;;;;;;;13.73;7.13;;;;;;;25.80;47.37;98041.56;5053757;28;20048;-71
2023/10/03 10:59:45;;;;;;;11.35;6.57;;;;;;;25.79;47.29;98045.47;5070758;28;20017;-75
2023/10/03 11:02:22;;;;;;;11.60;6.47;;;;;;;25.83;46.66;98034.56;5053815;28;20025;-74
2023/10/03 11:04:58;;;;;;;11.73;6.57;;;;;;;25.81;47.03;98036.88;5054197;28;20498;-73
2023/10/03 11:07:25;;;;;;;13.48;6.85;;;;;;;25.59;46.98;98009.75;5071504;28;20396;-73
2023/10/03 11:09:52;;;;;;;9.55;6.07;;;;;;;25.66;47.37;98021.81;5051467;28;20025;-74
2023/10/03 11:12:26;;;;;;;12.85;6.82;;;;;;;25.82;46.99;98019.94;5033966;28;20480;-74
2023/10/03 11:14:53;;;;;;;15.90;6.40;;;;;;;25.99;46.53;98016.94;5018037;28;20044;-74
2023/10/03 11:17:20;;;;;;;11.13;5.72;;;;;;;26.11;46.92;98027.16;5068657;28;20496;-74
2023/10/03 11:19:46;;;;;;;9.70;6.20;;;;;;;26.28;46.17;98034.34;5051480;28;20040;-74
2023/10/03 11:22:12;;;;;;;10.82;6.57;;;;;;;26.20;46.33;98011.25;5032616;28;20123;-74
2023/10/03 11:24:39;;;;;;;10.60;6.30;;;;;;;26.14;45.80;98007.13;5048462;28;20749;-73
2023/10/03 11:27:05;;;;;;;12.82;6.70;;;;;;;25.93;46.74;98032.09;5032329;28;20036;-74